sensor_id;sensor_type;location;lat;lon;timestamp;P1;durP1;ratioP1;P2;durP2;ratioP2
4174;SDS011;2101;48.290;14.382;2023-06-26T00:00:57;17.17;;;3.17;;
4174;SDS011;2101;48.290;14.382;2023-06-26T00:03:23;19.40;;;3.73;;
4174;SDS011;2101;48.290;14.382;2023-06-26T00:05:49;16.80;;;2.93;;
4174;SDS011;2101;48.290;14.382;2023-06-26T00:08:15;17.10;;;3.63;;
4174;SDS011;2101;48.290;14.382;2023-06-26T00:10:41;18.20;;;3.60;;
4174;SDS011;2101;48.290;14.382;2023-06-26T00:13:10;18.57;;;4.13;;
4174;SDS011;2101;48.290;14.382;2023-06-26T00:15:37;19.03;;;3.43;;
4174;SDS011;2101;48.290;14.382;2023-06-26T00:18:06;18.67;;;3.67;;
4174;SDS011;2101;48.290;14.382;2023-06-26T00:20:32;18.03;;;4.07;;
4174;SDS011;2101;48.290;14.382;2023-06-26T00:22:59;19.60;;;4.30;;
4174;SDS011;2101;48.290;14.382;2023-06-26T00:25:25;18.40;;;4.07;;
4174;SDS011;2101;48.290;14.382;2023-06-26T00:27:51;17.57;;;3.80;;
4174;SDS011;2101;48.290;14.382;2023-06-26T00:30:20;18.27;;;3.70;;
4174;SDS011;2101;48.290;14.382;2023-06-26T00:32:48;19.40;;;4.00;;
4174;SDS011;2101;48.290;14.382;2023-06-26T00:35:15;17.83;;;3.73;;
4174;SDS011;2101;48.290;14.382;2023-06-26T00:37:41;17.97;;;3.93;;
4174;SDS011;2101;48.290;14.382;2023-06-26T00:40:08;17.80;;;3.43;;
4174;SDS011;2101;48.290;14.382;2023-06-26T00:42:34;21.07;;;4.20;;
4174;SDS011;2101;48.290;14.382;2023-06-26T00:45:00;19.03;;;3.60;;
4174;SDS011;2101;48.290;14.382;2023-06-26T00:47:26;18.00;;;3.60;;
4174;SDS011;2101;48.290;14.382;2023-06-26T00:49:53;22.80;;;4.13;;
4174;SDS011;2101;48.290;14.382;2023-06-26T00:52:20;17.67;;;3.87;;
4174;SDS011;2101;48.290;14.382;2023-06-26T00:54:46;18.10;;;3.80;;
4174;SDS011;2101;48.290;14.382;2023-06-26T00:57:13;18.37;;;4.03;;
4174;SDS011;2101;48.290;14.382;2023-06-26T00:59:39;17.97;;;3.73;;
4174;SDS011;2101;48.290;14.382;2023-06-26T01:02:05;18.00;;;4.03;;
4174;SDS011;2101;48.290;14.382;2023-06-26T01:04:31;17.93;;;4.20;;
4174;SDS011;2101;48.290;14.382;2023-06-26T01:07:01;22.67;;;4.10;;
4174;SDS011;2101;48.290;14.382;2023-06-26T01:09:27;17.33;;;3.40;;
4174;SDS011;2101;48.290;14.382;2023-06-26T01:11:53;18.87;;;3.90;;
4174;SDS011;2101;48.290;14.382;2023-06-26T01:14:20;16.33;;;3.40;;
4174;SDS011;2101;48.290;14.382;2023-06-26T01:16:46;18.37;;;4.13;;
4174;SDS011;2101;48.290;14.382;2023-06-26T01:19:30;18.03;;;4.03;;
4174;SDS011;2101;48.290;14.382;2023-06-26T01:24:42;21.47;;;4.30;;
4174;SDS011;2101;48.290;14.382;2023-06-26T01:27:10;20.40;;;4.20;;
4174;SDS011;2101;48.290;14.382;2023-06-26T01:29:37;20.07;;;3.97;;
4174;SDS011;2101;48.290;14.382;2023-06-26T01:32:03;19.70;;;4.13;;
4174;SDS011;2101;48.290;14.382;2023-06-26T01:34:30;18.00;;;3.70;;
4174;SDS011;2101;48.290;14.382;2023-06-26T01:36:56;16.90;;;3.70;;
4174;SDS011;2101;48.290;14.382;2023-06-26T01:39:25;18.80;;;4.00;;
4174;SDS011;2101;48.290;14.382;2023-06-26T01:41:51;17.37;;;3.93;;
4174;SDS011;2101;48.290;14.382;2023-06-26T01:44:19;17.57;;;3.90;;
4174;SDS011;2101;48.290;14.382;2023-06-26T01:46:52;19.07;;;4.20;;
4174;SDS011;2101;48.290;14.382;2023-06-26T01:54:28;18.87;;;4.30;;
4174;SDS011;2101;48.290;14.382;2023-06-26T01:56:56;18.03;;;3.87;;
4174;SDS011;2101;48.290;14.382;2023-06-26T01:59:23;17.10;;;3.47;;
4174;SDS011;2101;48.290;14.382;2023-06-26T02:01:52;23.23;;;4.13;;
4174;SDS011;2101;48.290;14.382;2023-06-26T02:04:18;20.50;;;3.77;;
4174;SDS011;2101;48.290;14.382;2023-06-26T02:06:44;20.40;;;3.53;;
4174;SDS011;2101;48.290;14.382;2023-06-26T02:09:10;21.23;;;3.93;;
4174;SDS011;2101;48.290;14.382;2023-06-26T02:11:36;17.60;;;3.43;;
4174;SDS011;2101;48.290;14.382;2023-06-26T02:14:02;22.10;;;3.80;;
4174;SDS011;2101;48.290;14.382;2023-06-26T02:16:29;19.30;;;4.33;;
4174;SDS011;2101;48.290;14.382;2023-06-26T02:18:55;18.10;;;3.70;;
4174;SDS011;2101;48.290;14.382;2023-06-26T02:21:22;18.53;;;3.80;;
4174;SDS011;2101;48.290;14.382;2023-06-26T02:23:48;24.93;;;4.10;;
4174;SDS011;2101;48.290;14.382;2023-06-26T02:26:14;17.47;;;3.73;;
4174;SDS011;2101;48.290;14.382;2023-06-26T02:28:40;17.03;;;3.90;;
4174;SDS011;2101;48.290;14.382;2023-06-26T02:31:07;16.43;;;3.30;;
4174;SDS011;2101;48.290;14.382;2023-06-26T02:33:33;17.60;;;3.73;;
4174;SDS011;2101;48.290;14.382;2023-06-26T02:35:59;17.17;;;3.60;;
4174;SDS011;2101;48.290;14.382;2023-06-26T02:38:25;16.97;;;3.37;;
4174;SDS011;2101;48.290;14.382;2023-06-26T02:40:51;18.00;;;4.10;;
4174;SDS011;2101;48.290;14.382;2023-06-26T02:43:17;20.73;;;4.53;;
4174;SDS011;2101;48.290;14.382;2023-06-26T02:45:43;17.97;;;3.60;;
4174;SDS011;2101;48.290;14.382;2023-06-26T02:48:10;18.10;;;4.10;;
4174;SDS011;2101;48.290;14.382;2023-06-26T02:50:36;17.50;;;4.07;;
4174;SDS011;2101;48.290;14.382;2023-06-26T02:53:04;16.83;;;3.60;;
4174;SDS011;2101;48.290;14.382;2023-06-26T02:55:31;18.07;;;4.03;;
4174;SDS011;2101;48.290;14.382;2023-06-26T02:57:57;23.23;;;4.40;;
4174;SDS011;2101;48.290;14.382;2023-06-26T03:00:23;18.20;;;4.10;;
4174;SDS011;2101;48.290;14.382;2023-06-26T03:02:49;17.93;;;3.90;;
4174;SDS011;2101;48.290;14.382;2023-06-26T03:05:15;18.40;;;4.33;;
4174;SDS011;2101;48.290;14.382;2023-06-26T03:07:41;18.03;;;3.60;;
4174;SDS011;2101;48.290;14.382;2023-06-26T03:10:07;17.80;;;3.67;;
4174;SDS011;2101;48.290;14.382;2023-06-26T03:12:34;17.27;;;3.80;;
4174;SDS011;2101;48.290;14.382;2023-06-26T03:15:00;18.10;;;3.50;;
4174;SDS011;2101;48.290;14.382;2023-06-26T03:17:26;18.93;;;4.10;;
4174;SDS011;2101;48.290;14.382;2023-06-26T03:19:52;18.43;;;3.90;;
4174;SDS011;2101;48.290;14.382;2023-06-26T03:22:21;20.40;;;4.27;;
4174;SDS011;2101;48.290;14.382;2023-06-26T03:24:47;19.93;;;4.90;;
4174;SDS011;2101;48.290;14.382;2023-06-26T03:27:17;21.17;;;5.20;;
4174;SDS011;2101;48.290;14.382;2023-06-26T03:29:44;23.13;;;5.70;;
4174;SDS011;2101;48.290;14.382;2023-06-26T03:32:12;23.50;;;5.80;;
4174;SDS011;2101;48.290;14.382;2023-06-26T03:34:39;31.13;;;6.93;;
4174;SDS011;2101;48.290;14.382;2023-06-26T03:37:07;22.60;;;5.50;;
4174;SDS011;2101;48.290;14.382;2023-06-26T03:39:33;23.93;;;5.60;;
4174;SDS011;2101;48.290;14.382;2023-06-26T03:42:00;26.67;;;7.10;;
4174;SDS011;2101;48.290;14.382;2023-06-26T03:44:27;24.57;;;6.83;;
4174;SDS011;2101;48.290;14.382;2023-06-26T03:46:56;23.20;;;7.20;;
4174;SDS011;2101;48.290;14.382;2023-06-26T03:49:22;26.43;;;8.37;;
4174;SDS011;2101;48.290;14.382;2023-06-26T03:51:48;30.03;;;8.70;;
4174;SDS011;2101;48.290;14.382;2023-06-26T03:54:15;30.10;;;9.93;;
4174;SDS011;2101;48.290;14.382;2023-06-26T03:56:41;30.47;;;10.40;;
4174;SDS011;2101;48.290;14.382;2023-06-26T03:59:08;31.87;;;10.37;;
4174;SDS011;2101;48.290;14.382;2023-06-26T04:01:38;31.50;;;11.63;;
4174;SDS011;2101;48.290;14.382;2023-06-26T04:04:04;46.10;;;12.77;;
4174;SDS011;2101;48.290;14.382;2023-06-26T04:06:30;37.13;;;12.30;;
4174;SDS011;2101;48.290;14.382;2023-06-26T04:08:59;36.60;;;11.77;;
4174;SDS011;2101;48.290;14.382;2023-06-26T04:11:25;34.30;;;11.37;;
4174;SDS011;2101;48.290;14.382;2023-06-26T04:13:54;30.43;;;9.53;;
4174;SDS011;2101;48.290;14.382;2023-06-26T04:16:21;25.33;;;6.50;;
4174;SDS011;2101;48.290;14.382;2023-06-26T04:18:51;20.40;;;5.10;;
4174;SDS011;2101;48.290;14.382;2023-06-26T04:21:21;18.83;;;4.20;;
4174;SDS011;2101;48.290;14.382;2023-06-26T04:23:50;22.40;;;4.00;;
4174;SDS011;2101;48.290;14.382;2023-06-26T04:26:16;17.87;;;4.30;;
4174;SDS011;2101;48.290;14.382;2023-06-26T04:28:45;17.00;;;4.00;;
4174;SDS011;2101;48.290;14.382;2023-06-26T04:31:17;17.40;;;4.00;;
4174;SDS011;2101;48.290;14.382;2023-06-26T04:33:44;17.80;;;4.27;;
4174;SDS011;2101;48.290;14.382;2023-06-26T04:36:17;18.73;;;3.93;;
4174;SDS011;2101;48.290;14.382;2023-06-26T04:38:44;18.13;;;4.17;;
4174;SDS011;2101;48.290;14.382;2023-06-26T04:41:10;18.77;;;4.07;;
4174;SDS011;2101;48.290;14.382;2023-06-26T04:43:37;19.03;;;3.87;;
4174;SDS011;2101;48.290;14.382;2023-06-26T04:46:04;22.73;;;7.13;;
4174;SDS011;2101;48.290;14.382;2023-06-26T04:48:32;31.23;;;7.60;;
4174;SDS011;2101;48.290;14.382;2023-06-26T04:50:59;30.30;;;8.50;;
4174;SDS011;2101;48.290;14.382;2023-06-26T04:53:25;23.60;;;7.97;;
4174;SDS011;2101;48.290;14.382;2023-06-26T04:55:54;28.93;;;8.13;;
4174;SDS011;2101;48.290;14.382;2023-06-26T04:58:22;28.70;;;8.30;;
4174;SDS011;2101;48.290;14.382;2023-06-26T05:00:48;25.20;;;8.67;;
4174;SDS011;2101;48.290;14.382;2023-06-26T05:03:16;30.17;;;8.07;;
4174;SDS011;2101;48.290;14.382;2023-06-26T05:16:17;24.40;;;7.77;;
4174;SDS011;2101;48.290;14.382;2023-06-26T05:18:50;21.70;;;6.40;;
4174;SDS011;2101;48.290;14.382;2023-06-26T05:21:26;22.55;;;7.82;;
4174;SDS011;2101;48.290;14.382;2023-06-26T05:27:01;31.58;;;7.10;;
4174;SDS011;2101;48.290;14.382;2023-06-26T05:32:52;32.70;;;7.72;;
4174;SDS011;2101;48.290;14.382;2023-06-26T06:01:25;18.40;;;5.88;;
4174;SDS011;2101;48.290;14.382;2023-06-26T06:14:02;23.98;;;7.13;;
4174;SDS011;2101;48.290;14.382;2023-06-26T06:19:47;21.83;;;6.07;;
4174;SDS011;2101;48.290;14.382;2023-06-26T06:22:14;20.23;;;5.30;;
4174;SDS011;2101;48.290;14.382;2023-06-26T06:24:42;28.55;;;6.90;;
4174;SDS011;2101;48.290;14.382;2023-06-26T06:27:11;25.00;;;6.60;;
4174;SDS011;2101;48.290;14.382;2023-06-26T06:29:38;20.02;;;6.07;;
4174;SDS011;2101;48.290;14.382;2023-06-26T06:32:04;20.27;;;5.00;;
4174;SDS011;2101;48.290;14.382;2023-06-26T06:34:34;20.83;;;5.80;;
4174;SDS011;2101;48.290;14.382;2023-06-26T06:37:02;31.48;;;7.03;;
4174;SDS011;2101;48.290;14.382;2023-06-26T06:39:29;25.40;;;6.40;;
4174;SDS011;2101;48.290;14.382;2023-06-26T06:41:55;26.20;;;7.13;;
4174;SDS011;2101;48.290;14.382;2023-06-26T06:44:23;31.98;;;6.70;;
4174;SDS011;2101;48.290;14.382;2023-06-26T06:46:49;24.95;;;6.82;;
4174;SDS011;2101;48.290;14.382;2023-06-26T06:49:16;26.92;;;7.40;;
4174;SDS011;2101;48.290;14.382;2023-06-26T06:51:42;18.92;;;6.15;;
4174;SDS011;2101;48.290;14.382;2023-06-26T06:54:11;20.80;;;6.40;;
4174;SDS011;2101;48.290;14.382;2023-06-26T06:56:38;25.35;;;5.57;;
4174;SDS011;2101;48.290;14.382;2023-06-26T06:59:06;25.90;;;5.38;;
4174;SDS011;2101;48.290;14.382;2023-06-26T07:01:32;23.65;;;5.10;;
4174;SDS011;2101;48.290;14.382;2023-06-26T07:04:01;24.83;;;6.88;;
4174;SDS011;2101;48.290;14.382;2023-06-26T07:06:30;25.38;;;6.45;;
4174;SDS011;2101;48.290;14.382;2023-06-26T07:08:57;22.70;;;6.50;;
4174;SDS011;2101;48.290;14.382;2023-06-26T07:11:24;27.77;;;6.35;;
4174;SDS011;2101;48.290;14.382;2023-06-26T07:13:50;23.30;;;6.53;;
4174;SDS011;2101;48.290;14.382;2023-06-26T07:16:21;29.63;;;5.57;;
4174;SDS011;2101;48.290;14.382;2023-06-26T07:18:48;42.28;;;5.88;;
4174;SDS011;2101;48.290;14.382;2023-06-26T07:21:17;18.90;;;5.50;;
4174;SDS011;2101;48.290;14.382;2023-06-26T07:24:10;19.58;;;4.72;;
4174;SDS011;2101;48.290;14.382;2023-06-26T12:38:08;15.32;;;2.78;;
4174;SDS011;2101;48.290;14.382;2023-06-26T13:32:18;15.13;;;2.50;;
4174;SDS011;2101;48.290;14.382;2023-06-26T13:54:06;13.85;;;2.55;;
4174;SDS011;2101;48.290;14.382;2023-06-26T14:09:18;15.23;;;3.17;;
4174;SDS011;2101;48.290;14.382;2023-06-26T14:37:13;14.73;;;3.00;;
4174;SDS011;2101;48.290;14.382;2023-06-26T14:43:16;18.30;;;2.60;;
4174;SDS011;2101;48.290;14.382;2023-06-26T14:48:54;13.25;;;2.30;;
4174;SDS011;2101;48.290;14.382;2023-06-26T14:57:51;14.30;;;2.78;;
4174;SDS011;2101;48.290;14.382;2023-06-26T15:00:38;13.23;;;2.33;;
4174;SDS011;2101;48.290;14.382;2023-06-26T15:22:59;15.48;;;2.33;;
4174;SDS011;2101;48.290;14.382;2023-06-26T15:28:01;13.77;;;2.50;;
4174;SDS011;2101;48.290;14.382;2023-06-26T15:30:32;18.98;;;2.42;;
4174;SDS011;2101;48.290;14.382;2023-06-26T15:41:38;13.35;;;2.58;;
4174;SDS011;2101;48.290;14.382;2023-06-26T16:10:28;15.20;;;2.60;;
4174;SDS011;2101;48.290;14.382;2023-06-26T16:13:01;14.52;;;2.75;;
4174;SDS011;2101;48.290;14.382;2023-06-26T16:15:42;13.45;;;2.67;;
4174;SDS011;2101;48.290;14.382;2023-06-26T16:18:24;14.18;;;2.80;;
4174;SDS011;2101;48.290;14.382;2023-06-26T16:20:52;14.57;;;2.90;;
4174;SDS011;2101;48.290;14.382;2023-06-26T16:23:27;16.02;;;3.15;;
4174;SDS011;2101;48.290;14.382;2023-06-26T16:29:37;13.35;;;2.38;;
4174;SDS011;2101;48.290;14.382;2023-06-26T16:37:53;15.27;;;3.20;;
4174;SDS011;2101;48.290;14.382;2023-06-26T16:43:39;14.50;;;2.38;;
4174;SDS011;2101;48.290;14.382;2023-06-26T16:46:11;16.05;;;2.80;;
4174;SDS011;2101;48.290;14.382;2023-06-26T16:51:56;14.68;;;2.67;;
4174;SDS011;2101;48.290;14.382;2023-06-26T16:54:41;14.05;;;3.00;;
4174;SDS011;2101;48.290;14.382;2023-06-26T17:35:26;15.40;;;2.70;;
4174;SDS011;2101;48.290;14.382;2023-06-26T17:37:52;16.52;;;3.10;;
4174;SDS011;2101;48.290;14.382;2023-06-26T17:40:18;15.80;;;3.10;;
4174;SDS011;2101;48.290;14.382;2023-06-26T17:42:45;16.90;;;3.10;;
4174;SDS011;2101;48.290;14.382;2023-06-26T17:45:11;18.55;;;3.22;;
4174;SDS011;2101;48.290;14.382;2023-06-26T17:47:39;13.50;;;2.45;;
4174;SDS011;2101;48.290;14.382;2023-06-26T17:50:08;21.25;;;3.20;;
4174;SDS011;2101;48.290;14.382;2023-06-26T17:52:36;17.33;;;3.03;;
4174;SDS011;2101;48.290;14.382;2023-06-26T17:55:02;18.60;;;3.08;;
4174;SDS011;2101;48.290;14.382;2023-06-26T17:57:29;15.45;;;2.88;;
4174;SDS011;2101;48.290;14.382;2023-06-26T17:59:55;18.15;;;3.25;;
4174;SDS011;2101;48.290;14.382;2023-06-26T18:02:21;23.88;;;2.78;;
4174;SDS011;2101;48.290;14.382;2023-06-26T18:04:47;15.10;;;2.90;;
4174;SDS011;2101;48.290;14.382;2023-06-26T18:07:13;15.07;;;3.00;;
4174;SDS011;2101;48.290;14.382;2023-06-26T18:09:40;16.95;;;3.35;;
4174;SDS011;2101;48.290;14.382;2023-06-26T18:12:10;14.95;;;3.33;;
4174;SDS011;2101;48.290;14.382;2023-06-26T18:14:36;14.85;;;3.17;;
4174;SDS011;2101;48.290;14.382;2023-06-26T18:17:03;15.10;;;2.85;;
4174;SDS011;2101;48.290;14.382;2023-06-26T18:19:29;13.80;;;2.42;;
4174;SDS011;2101;48.290;14.382;2023-06-26T18:21:55;14.63;;;2.67;;
4174;SDS011;2101;48.290;14.382;2023-06-26T18:24:21;16.92;;;3.20;;
4174;SDS011;2101;48.290;14.382;2023-06-26T18:26:51;15.27;;;3.45;;
4174;SDS011;2101;48.290;14.382;2023-06-26T18:29:17;16.88;;;3.72;;
4174;SDS011;2101;48.290;14.382;2023-06-26T18:31:46;14.55;;;2.70;;
4174;SDS011;2101;48.290;14.382;2023-06-26T18:34:15;15.63;;;3.22;;
4174;SDS011;2101;48.290;14.382;2023-06-26T18:36:41;15.38;;;2.92;;
4174;SDS011;2101;48.290;14.382;2023-06-26T18:39:08;15.45;;;3.10;;
4174;SDS011;2101;48.290;14.382;2023-06-26T18:41:36;16.95;;;2.97;;
4174;SDS011;2101;48.290;14.382;2023-06-26T18:44:04;14.97;;;2.97;;
4174;SDS011;2101;48.290;14.382;2023-06-26T18:46:31;15.50;;;3.33;;
4174;SDS011;2101;48.290;14.382;2023-06-26T18:49:02;15.23;;;3.07;;
4174;SDS011;2101;48.290;14.382;2023-06-26T18:51:29;15.40;;;3.13;;
4174;SDS011;2101;48.290;14.382;2023-06-26T18:53:55;23.07;;;4.13;;
4174;SDS011;2101;48.290;14.382;2023-06-26T18:56:28;21.93;;;3.70;;
4174;SDS011;2101;48.290;14.382;2023-06-26T18:58:57;15.70;;;3.10;;
4174;SDS011;2101;48.290;14.382;2023-06-26T19:01:24;16.77;;;3.30;;
4174;SDS011;2101;48.290;14.382;2023-06-26T19:03:50;17.83;;;3.20;;
4174;SDS011;2101;48.290;14.382;2023-06-26T19:06:16;16.30;;;3.30;;
4174;SDS011;2101;48.290;14.382;2023-06-26T19:08:48;16.43;;;3.40;;
4174;SDS011;2101;48.290;14.382;2023-06-26T19:11:14;27.70;;;4.10;;
4174;SDS011;2101;48.290;14.382;2023-06-26T19:13:42;18.23;;;3.73;;
4174;SDS011;2101;48.290;14.382;2023-06-26T19:16:12;16.37;;;3.23;;
4174;SDS011;2101;48.290;14.382;2023-06-26T19:18:38;17.97;;;3.67;;
4174;SDS011;2101;48.290;14.382;2023-06-26T19:21:04;16.73;;;3.50;;
4174;SDS011;2101;48.290;14.382;2023-06-26T19:23:30;16.43;;;3.10;;
4174;SDS011;2101;48.290;14.382;2023-06-26T19:25:56;17.63;;;3.80;;
4174;SDS011;2101;48.290;14.382;2023-06-26T19:28:23;16.03;;;3.10;;
4174;SDS011;2101;48.290;14.382;2023-06-26T19:30:49;21.23;;;3.70;;
4174;SDS011;2101;48.290;14.382;2023-06-26T19:33:15;18.40;;;3.60;;
4174;SDS011;2101;48.290;14.382;2023-06-26T19:35:41;18.80;;;3.87;;
4174;SDS011;2101;48.290;14.382;2023-06-26T19:38:08;16.90;;;3.57;;
4174;SDS011;2101;48.290;14.382;2023-06-26T19:40:37;16.60;;;3.40;;
4174;SDS011;2101;48.290;14.382;2023-06-26T19:43:03;19.13;;;3.00;;
4174;SDS011;2101;48.290;14.382;2023-06-26T19:45:30;17.70;;;3.50;;
4174;SDS011;2101;48.290;14.382;2023-06-26T19:47:56;16.70;;;3.73;;
4174;SDS011;2101;48.290;14.382;2023-06-26T19:50:23;22.33;;;4.00;;
4174;SDS011;2101;48.290;14.382;2023-06-26T19:52:49;16.90;;;3.57;;
4174;SDS011;2101;48.290;14.382;2023-06-26T19:55:15;17.90;;;3.80;;
4174;SDS011;2101;48.290;14.382;2023-06-26T19:57:42;17.87;;;3.93;;
4174;SDS011;2101;48.290;14.382;2023-06-26T20:00:09;17.93;;;3.47;;
4174;SDS011;2101;48.290;14.382;2023-06-26T20:02:35;22.10;;;3.27;;
4174;SDS011;2101;48.290;14.382;2023-06-26T20:05:01;31.20;;;4.37;;
4174;SDS011;2101;48.290;14.382;2023-06-26T20:07:28;23.87;;;3.97;;
4174;SDS011;2101;48.290;14.382;2023-06-26T20:09:57;23.70;;;3.63;;
4174;SDS011;2101;48.290;14.382;2023-06-26T20:12:26;19.63;;;3.50;;
4174;SDS011;2101;48.290;14.382;2023-06-26T20:14:56;19.53;;;4.40;;
4174;SDS011;2101;48.290;14.382;2023-06-26T20:17:22;18.10;;;3.13;;
4174;SDS011;2101;48.290;14.382;2023-06-26T20:19:48;16.37;;;3.33;;
4174;SDS011;2101;48.290;14.382;2023-06-26T20:22:15;18.10;;;3.27;;
4174;SDS011;2101;48.290;14.382;2023-06-26T20:24:41;18.10;;;3.83;;
4174;SDS011;2101;48.290;14.382;2023-06-26T20:27:07;16.00;;;3.17;;
4174;SDS011;2101;48.290;14.382;2023-06-26T20:29:33;21.50;;;3.60;;
4174;SDS011;2101;48.290;14.382;2023-06-26T20:32:00;16.13;;;3.07;;
4174;SDS011;2101;48.290;14.382;2023-06-26T20:34:27;16.17;;;3.70;;
4174;SDS011;2101;48.290;14.382;2023-06-26T20:36:56;24.07;;;4.47;;
4174;SDS011;2101;48.290;14.382;2023-06-26T20:39:23;17.90;;;3.70;;
4174;SDS011;2101;48.290;14.382;2023-06-26T20:41:53;16.80;;;3.57;;
4174;SDS011;2101;48.290;14.382;2023-06-26T20:44:19;19.27;;;4.40;;
4174;SDS011;2101;48.290;14.382;2023-06-26T20:46:45;20.80;;;3.50;;
4174;SDS011;2101;48.290;14.382;2023-06-26T20:49:20;17.47;;;3.60;;
4174;SDS011;2101;48.290;14.382;2023-06-26T20:51:54;19.10;;;4.13;;
4174;SDS011;2101;48.290;14.382;2023-06-26T20:54:20;18.40;;;4.13;;
4174;SDS011;2101;48.290;14.382;2023-06-26T20:56:48;22.90;;;5.47;;
4174;SDS011;2101;48.290;14.382;2023-06-26T20:59:15;26.47;;;5.40;;
4174;SDS011;2101;48.290;14.382;2023-06-26T21:01:41;24.43;;;4.13;;
4174;SDS011;2101;48.290;14.382;2023-06-26T21:04:10;20.40;;;5.30;;
4174;SDS011;2101;48.290;14.382;2023-06-26T21:06:36;22.30;;;4.90;;
4174;SDS011;2101;48.290;14.382;2023-06-26T21:09:04;25.70;;;5.87;;
4174;SDS011;2101;48.290;14.382;2023-06-26T21:11:30;23.60;;;4.70;;
4174;SDS011;2101;48.290;14.382;2023-06-26T21:13:56;20.50;;;4.63;;
4174;SDS011;2101;48.290;14.382;2023-06-26T21:16:23;21.93;;;4.70;;
4174;SDS011;2101;48.290;14.382;2023-06-26T21:18:49;23.40;;;4.80;;
4174;SDS011;2101;48.290;14.382;2023-06-26T21:21:15;18.10;;;3.80;;
4174;SDS011;2101;48.290;14.382;2023-06-26T21:23:41;16.20;;;3.40;;
4174;SDS011;2101;48.290;14.382;2023-06-26T21:26:07;22.10;;;4.10;;
4174;SDS011;2101;48.290;14.382;2023-06-26T21:28:33;16.97;;;3.50;;
4174;SDS011;2101;48.290;14.382;2023-06-26T21:31:00;21.80;;;4.00;;
4174;SDS011;2101;48.290;14.382;2023-06-26T21:33:26;22.43;;;3.70;;
4174;SDS011;2101;48.290;14.382;2023-06-26T21:35:55;19.93;;;4.07;;
4174;SDS011;2101;48.290;14.382;2023-06-26T21:38:22;16.40;;;3.60;;
4174;SDS011;2101;48.290;14.382;2023-06-26T21:40:48;17.17;;;3.87;;
4174;SDS011;2101;48.290;14.382;2023-06-26T21:43:14;17.80;;;4.20;;
4174;SDS011;2101;48.290;14.382;2023-06-26T21:45:41;16.50;;;3.17;;
4174;SDS011;2101;48.290;14.382;2023-06-26T21:48:10;16.40;;;3.57;;
4174;SDS011;2101;48.290;14.382;2023-06-26T21:50:37;20.20;;;4.77;;
4174;SDS011;2101;48.290;14.382;2023-06-26T21:53:04;17.43;;;4.13;;
4174;SDS011;2101;48.290;14.382;2023-06-26T21:55:31;20.10;;;4.10;;
4174;SDS011;2101;48.290;14.382;2023-06-26T21:57:57;20.57;;;4.60;;
4174;SDS011;2101;48.290;14.382;2023-06-26T22:00:24;17.97;;;4.30;;
4174;SDS011;2101;48.290;14.382;2023-06-26T22:02:50;23.20;;;3.90;;
4174;SDS011;2101;48.290;14.382;2023-06-26T22:05:19;20.93;;;3.90;;
4174;SDS011;2101;48.290;14.382;2023-06-26T22:07:48;18.20;;;4.47;;
4174;SDS011;2101;48.290;14.382;2023-06-26T22:10:14;19.30;;;4.20;;
4174;SDS011;2101;48.290;14.382;2023-06-26T22:12:40;16.67;;;3.90;;
4174;SDS011;2101;48.290;14.382;2023-06-26T22:15:09;18.70;;;4.70;;
4174;SDS011;2101;48.290;14.382;2023-06-26T22:17:45;20.00;;;4.30;;
4174;SDS011;2101;48.290;14.382;2023-06-26T22:20:19;21.53;;;5.23;;
4174;SDS011;2101;48.290;14.382;2023-06-26T22:22:45;20.57;;;5.17;;
4174;SDS011;2101;48.290;14.382;2023-06-26T22:25:12;26.47;;;5.70;;
4174;SDS011;2101;48.290;14.382;2023-06-26T22:27:48;27.10;;;6.40;;
4174;SDS011;2101;48.290;14.382;2023-06-26T22:30:14;28.13;;;6.27;;
4174;SDS011;2101;48.290;14.382;2023-06-26T22:32:41;39.50;;;8.00;;
4174;SDS011;2101;48.290;14.382;2023-06-26T22:35:11;33.67;;;7.57;;
4174;SDS011;2101;48.290;14.382;2023-06-26T22:37:38;34.40;;;7.27;;
4174;SDS011;2101;48.290;14.382;2023-06-26T22:40:08;29.83;;;7.00;;
4174;SDS011;2101;48.290;14.382;2023-06-26T22:42:34;29.03;;;6.33;;
4174;SDS011;2101;48.290;14.382;2023-06-26T22:45:04;21.77;;;4.77;;
4174;SDS011;2101;48.290;14.382;2023-06-26T22:47:31;23.50;;;5.60;;
4174;SDS011;2101;48.290;14.382;2023-06-26T22:49:59;20.90;;;5.30;;
4174;SDS011;2101;48.290;14.382;2023-06-26T22:52:25;21.90;;;4.73;;
4174;SDS011;2101;48.290;14.382;2023-06-26T22:54:51;34.97;;;4.30;;
4174;SDS011;2101;48.290;14.382;2023-06-26T22:57:17;23.00;;;4.73;;
4174;SDS011;2101;48.290;14.382;2023-06-26T22:59:44;19.23;;;4.50;;
4174;SDS011;2101;48.290;14.382;2023-06-26T23:02:13;19.17;;;4.20;;
4174;SDS011;2101;48.290;14.382;2023-06-26T23:04:40;17.30;;;3.53;;
4174;SDS011;2101;48.290;14.382;2023-06-26T23:07:10;16.50;;;3.43;;
4174;SDS011;2101;48.290;14.382;2023-06-26T23:09:38;19.53;;;4.13;;
4174;SDS011;2101;48.290;14.382;2023-06-26T23:12:08;18.37;;;3.73;;
4174;SDS011;2101;48.290;14.382;2023-06-26T23:14:39;33.80;;;4.63;;
4174;SDS011;2101;48.290;14.382;2023-06-26T23:17:06;19.50;;;3.90;;
4174;SDS011;2101;48.290;14.382;2023-06-26T23:19:32;21.07;;;3.77;;
4174;SDS011;2101;48.290;14.382;2023-06-26T23:21:59;19.93;;;4.00;;
4174;SDS011;2101;48.290;14.382;2023-06-26T23:24:34;19.87;;;3.70;;
4174;SDS011;2101;48.290;14.382;2023-06-26T23:27:05;19.23;;;4.40;;
4174;SDS011;2101;48.290;14.382;2023-06-26T23:29:42;19.93;;;4.27;;
4174;SDS011;2101;48.290;14.382;2023-06-26T23:32:08;16.40;;;3.23;;
4174;SDS011;2101;48.290;14.382;2023-06-26T23:34:35;17.53;;;3.40;;
4174;SDS011;2101;48.290;14.382;2023-06-26T23:37:07;16.13;;;2.97;;
4174;SDS011;2101;48.290;14.382;2023-06-26T23:39:34;16.27;;;3.43;;
4174;SDS011;2101;48.290;14.382;2023-06-26T23:42:05;18.27;;;4.33;;
4174;SDS011;2101;48.290;14.382;2023-06-26T23:44:32;19.60;;;3.90;;
4174;SDS011;2101;48.290;14.382;2023-06-26T23:47:01;17.63;;;3.67;;
4174;SDS011;2101;48.290;14.382;2023-06-26T23:49:30;18.50;;;4.13;;
4174;SDS011;2101;48.290;14.382;2023-06-26T23:51:56;18.50;;;4.37;;
4174;SDS011;2101;48.290;14.382;2023-06-26T23:54:24;19.40;;;3.50;;
4174;SDS011;2101;48.290;14.382;2023-06-26T23:56:50;18.40;;;4.33;;
4174;SDS011;2101;48.290;14.382;2023-06-26T23:59:17;16.43;;;3.03;;
